Terminal Aerodrome Forecast
Issued by NWS Jackson, KY

Home | Current Version | Previous Version | Text Only | Print | Product List | Glossary On
Versions: 1 2 3 4 5 6 7 8 9 10 11 12 13 14 15 16 17 18
427
FTUS43 KJKL 241505 AAB
TAFLOZ
TAF AMD
KLOZ 241505Z 2415/2512 03006KT P6SM OVC009
     FM241800 05008KT P6SM BKN015
     FM242000 05008KT P6SM BKN025
     FM242100 05007KT P6SM BKN040
     FM250600 00000KT P6SM SCT020
     FM250900 00000KT 4SM BR SCT010=

USA.gov is the U.S. government's official web portal to all federal, state and local government web resources and services.